Time;durP1;ratioP1;P1;durP2;ratioP2;P2;SDS_P1;SDS_P2;PMS_P1;PMS_P2;Temp;Humidity;BMP_temperature;BMP_pressure;BME280_temperature;BME280_humidity;BME280_pressure;Samples;Min_cycle;Max_cycle;Signal;HPM_P1;HPM_P2
2020/12/17 00:00:29;;;;;;;40.73;27.67;;;8.00;99.90;;;;;;5009694;28;20271;-46
2020/12/17 00:02:56;;;;;;;40.40;27.63;;;8.00;99.90;;;;;;5005784;28;20245;-46
2020/12/17 00:05:24;;;;;;;41.00;27.10;;;8.00;99.90;;;;;;4992568;28;20246;-47
2020/12/17 00:07:52;;;;;;;41.10;28.27;;;8.00;99.90;;;;;;4991282;28;20323;-46
2020/12/17 00:10:20;;;;;;;41.73;27.00;;;8.00;99.90;;;;;;4996335;28;20288;-46
2020/12/17 00:12:49;;;;;;;42.13;27.97;;;8.00;99.90;;;;;;5008192;28;20237;-46
2020/12/17 00:15:19;;;;;;;40.57;26.50;;;8.00;99.90;;;;;;5009732;28;20279;-46
2020/12/17 00:17:48;;;;;;;39.33;26.40;;;8.00;99.90;;;;;;5009270;28;20287;-46
2020/12/17 00:20:18;;;;;;;42.37;27.93;;;8.00;99.90;;;;;;5009529;28;20237;-46
2020/12/17 00:22:46;;;;;;;41.83;28.10;;;8.00;99.90;;;;;;5008887;28;20558;-46
2020/12/17 00:25:17;;;;;;;42.73;28.90;;;7.90;99.90;;;;;;5009866;28;20233;-46
2020/12/17 00:27:46;;;;;;;41.70;27.83;;;7.90;99.90;;;;;;5009796;28;20251;-46
2020/12/17 00:30:17;;;;;;;37.67;26.53;;;7.90;99.90;;;;;;5009190;28;20241;-46
2020/12/17 00:32:46;;;;;;;41.10;27.47;;;7.90;99.90;;;;;;5008154;28;20698;-46
2020/12/17 00:35:16;;;;;;;39.50;27.50;;;7.80;99.90;;;;;;5009351;28;20262;-46
2020/12/17 00:37:44;;;;;;;41.53;28.23;;;7.80;99.90;;;;;;5009847;28;20707;-46
2020/12/17 00:40:13;;;;;;;37.73;27.47;;;7.80;99.90;;;;;;5009580;28;20651;-46
2020/12/17 00:42:41;;;;;;;38.93;26.97;;;7.80;99.90;;;;;;5008398;28;20767;-46
2020/12/17 00:45:09;;;;;;;41.33;27.93;;;7.80;99.90;;;;;;5009329;28;20295;-46
2020/12/17 00:47:38;;;;;;;39.80;26.70;;;7.80;99.90;;;;;;5009641;28;20307;-46
2020/12/17 00:50:09;;;;;;;39.80;27.73;;;7.80;99.90;;;;;;5009626;28;20404;-46
2020/12/17 00:52:36;;;;;;;38.33;26.77;;;7.80;99.90;;;;;;4989135;28;20269;-46
2020/12/17 00:55:04;;;;;;;39.47;26.87;;;7.80;99.90;;;;;;4989867;28;20697;-46
2020/12/17 00:57:31;;;;;;;38.53;26.83;;;7.70;99.90;;;;;;4989994;28;20238;-46
2020/12/17 00:59:59;;;;;;;39.13;27.90;;;7.80;99.90;;;;;;5001301;28;20245;-46
2020/12/17 01:02:26;;;;;;;39.77;26.87;;;7.80;99.90;;;;;;5008387;28;20663;-46
2020/12/17 01:04:54;;;;;;;36.80;25.57;;;7.80;99.90;;;;;;5009078;28;20781;-46
2020/12/17 01:07:22;;;;;;;37.20;25.83;;;7.80;99.90;;;;;;5009555;28;20244;-46
2020/12/17 01:09:49;;;;;;;37.20;25.70;;;7.80;99.90;;;;;;5009137;28;20248;-46
2020/12/17 01:12:17;;;;;;;38.67;25.63;;;7.80;99.90;;;;;;5008599;28;20233;-46
2020/12/17 01:14:44;;;;;;;36.27;25.87;;;7.80;99.90;;;;;;5011117;28;20245;-46
2020/12/17 01:17:11;;;;;;;40.37;27.53;;;7.70;99.90;;;;;;5013145;28;20237;-46
2020/12/17 01:19:39;;;;;;;39.97;26.80;;;7.70;99.90;;;;;;5009505;28;20291;-46
2020/12/17 01:22:07;;;;;;;36.40;26.40;;;7.70;99.90;;;;;;5008371;28;20237;-46
2020/12/17 01:24:34;;;;;;;36.37;25.37;;;7.70;99.90;;;;;;4989122;28;20264;-46
2020/12/17 01:27:02;;;;;;;38.20;26.00;;;7.70;99.90;;;;;;5005904;28;20291;-46
2020/12/17 01:29:29;;;;;;;39.57;25.90;;;7.70;99.90;;;;;;5009052;28;20229;-46
2020/12/17 01:31:58;;;;;;;38.73;27.30;;;7.70;99.90;;;;;;5007861;28;20291;-46
2020/12/17 01:34:26;;;;;;;36.03;25.60;;;7.70;99.90;;;;;;5008240;28;20635;-46
2020/12/17 01:36:55;;;;;;;36.30;25.73;;;7.70;99.90;;;;;;5008969;28;20316;-46
2020/12/17 01:39:24;;;;;;;37.13;24.87;;;7.70;99.90;;;;;;5008493;28;20798;-46
2020/12/17 01:41:54;;;;;;;33.73;25.27;;;7.70;99.90;;;;;;5003543;28;20292;-46
2020/12/17 01:44:22;;;;;;;39.70;27.57;;;7.80;99.90;;;;;;5008440;28;20319;-46
2020/12/17 01:46:50;;;;;;;37.83;25.27;;;7.80;99.90;;;;;;5008795;28;20241;-46
2020/12/17 01:49:24;;;;;;;37.70;26.13;;;7.70;99.90;;;;;;5009025;28;20241;-46
2020/12/17 01:51:53;;;;;;;35.00;25.00;;;7.70;99.90;;;;;;5007891;28;20233;-46
2020/12/17 01:54:20;;;;;;;35.00;24.73;;;7.80;99.90;;;;;;5008564;28;20241;-46
2020/12/17 01:56:57;;;;;;;36.60;24.73;;;7.80;99.90;;;;;;5008560;28;20675;-46
2020/12/17 01:59:25;;;;;;;36.03;25.77;;;7.80;99.90;;;;;;5008865;28;20295;-46
2020/12/17 02:01:54;;;;;;;36.23;25.77;;;7.80;99.90;;;;;;5007870;28;20244;-46
2020/12/17 02:04:24;;;;;;;36.30;25.03;;;7.80;99.90;;;;;;5005449;28;20229;-46
2020/12/17 02:06:52;;;;;;;38.03;24.63;;;7.80;99.90;;;;;;5006967;28;20249;-46
2020/12/17 02:09:21;;;;;;;36.30;25.30;;;7.80;99.90;;;;;;4989312;28;20296;-46
2020/12/17 02:11:53;;;;;;;36.10;24.97;;;7.80;99.90;;;;;;4998905;28;20657;-46
2020/12/17 02:14:21;;;;;;;33.73;25.27;;;7.80;99.90;;;;;;5004308;28;20241;-46
2020/12/17 02:16:49;;;;;;;35.37;24.80;;;7.80;99.90;;;;;;5008513;28;20245;-46
2020/12/17 02:19:18;;;;;;;35.27;25.03;;;7.80;99.90;;;;;;5008521;28;20712;-46
2020/12/17 02:21:45;;;;;;;33.30;24.50;;;7.90;99.90;;;;;;5007361;28;20229;-46
2020/12/17 02:24:14;;;;;;;31.93;23.97;;;7.80;99.90;;;;;;5008154;28;20242;-46
2020/12/17 02:26:42;;;;;;;33.37;23.77;;;7.80;99.90;;;;;;5008315;28;20614;-46
2020/12/17 02:29:09;;;;;;;32.20;24.37;;;7.80;99.90;;;;;;5009105;28;20255;-46
2020/12/17 02:31:38;;;;;;;33.67;25.10;;;7.80;99.90;;;;;;5007626;28;20251;-46
2020/12/17 02:34:05;;;;;;;33.93;24.67;;;7.80;99.90;;;;;;5007872;28;20237;-46
2020/12/17 02:36:32;;;;;;;33.20;24.23;;;7.80;99.90;;;;;;5007523;28;20729;-46
2020/12/17 02:39:00;;;;;;;33.90;24.60;;;7.80;99.90;;;;;;5007402;28;20640;-46
2020/12/17 02:41:27;;;;;;;32.40;24.07;;;7.90;99.90;;;;;;5007641;28;20283;-46
2020/12/17 02:48:21;;;;;;;33.47;23.97;;;7.80;99.90;;;;;;4988500;28;20702;-46
2020/12/17 02:50:48;;;;;;;32.83;22.93;;;7.80;99.90;;;;;;4989035;28;20245;-46
2020/12/17 02:53:15;;;;;;;33.57;24.10;;;7.90;99.90;;;;;;5007412;28;20295;-46
2020/12/17 02:55:43;;;;;;;32.17;24.33;;;7.80;99.90;;;;;;5008383;28;21388;-46
2020/12/17 02:58:10;;;;;;;35.07;25.47;;;7.80;99.90;;;;;;5012411;28;20244;-46
2020/12/17 03:00:38;;;;;;;36.70;25.80;;;7.80;99.90;;;;;;5011763;28;20233;-46
2020/12/17 03:03:05;;;;;;;32.67;24.43;;;7.80;99.90;;;;;;5010211;28;20229;-46
2020/12/17 03:05:34;;;;;;;31.97;24.80;;;7.80;99.90;;;;;;5011443;28;20311;-46
2020/12/17 03:08:16;;;;;;;31.00;23.33;;;7.80;99.90;;;;;;5010171;28;20749;-46
2020/12/17 03:10:43;;;;;;;34.67;24.30;;;7.80;99.90;;;;;;5010413;28;20237;-46
2020/12/17 03:13:11;;;;;;;33.70;24.60;;;7.80;99.90;;;;;;5010952;28;20241;-46
2020/12/17 03:15:38;;;;;;;35.53;24.73;;;7.80;99.90;;;;;;5011615;28;20233;-46
2020/12/17 03:18:06;;;;;;;34.90;25.23;;;7.80;99.90;;;;;;5011724;28;20252;-46
2020/12/17 03:20:34;;;;;;;33.60;25.17;;;7.80;99.90;;;;;;5011403;28;20237;-46
2020/12/17 03:23:01;;;;;;;34.57;24.77;;;7.90;99.90;;;;;;5010273;28;20248;-46
2020/12/17 03:25:29;;;;;;;33.90;24.67;;;7.80;99.90;;;;;;5011309;28;20551;-46
2020/12/17 03:27:56;;;;;;;33.87;25.37;;;7.80;99.90;;;;;;5011271;28;20280;-46
2020/12/17 03:30:23;;;;;;;33.90;25.60;;;7.80;99.90;;;;;;5010779;28;20237;-46
2020/12/17 03:32:51;;;;;;;34.40;25.43;;;7.80;99.90;;;;;;5008227;28;20324;-46
2020/12/17 03:35:19;;;;;;;33.80;25.77;;;7.80;99.90;;;;;;5010881;28;20333;-46
2020/12/17 03:37:47;;;;;;;34.63;24.77;;;7.80;99.90;;;;;;5009917;28;20248;-46
2020/12/17 03:40:15;;;;;;;33.60;25.00;;;7.80;99.90;;;;;;5010886;28;20244;-46
2020/12/17 03:42:43;;;;;;;34.33;25.57;;;7.80;99.90;;;;;;5009900;28;20822;-46
2020/12/17 03:45:10;;;;;;;37.53;25.63;;;7.80;99.90;;;;;;5011216;28;20233;-46
2020/12/17 03:47:37;;;;;;;35.70;25.17;;;7.80;99.90;;;;;;5010958;28;20249;-46
2020/12/17 03:50:05;;;;;;;33.63;24.40;;;7.80;99.90;;;;;;5010741;28;20245;-46
2020/12/17 03:52:32;;;;;;;39.77;26.70;;;7.80;99.90;;;;;;5009910;28;20229;-46
2020/12/17 03:55:00;;;;;;;36.63;25.63;;;7.80;99.90;;;;;;5010321;28;20295;-46
2020/12/17 03:57:28;;;;;;;37.63;26.27;;;7.80;99.90;;;;;;5002861;28;20697;-46
2020/12/17 03:59:55;;;;;;;38.17;24.57;;;7.80;99.90;;;;;;4994826;28;20273;-46
2020/12/17 04:02:22;;;;;;;36.67;25.67;;;7.80;99.90;;;;;;5010209;28;20239;-46
2020/12/17 04:04:50;;;;;;;34.60;24.83;;;7.80;99.90;;;;;;5010287;28;20241;-46
2020/12/17 04:07:18;;;;;;;37.20;26.17;;;7.80;99.90;;;;;;5008986;28;20241;-46
2020/12/17 04:09:45;;;;;;;37.27;26.17;;;7.80;99.90;;;;;;5010222;28;20240;-47
2020/12/17 04:12:14;;;;;;;34.87;24.97;;;7.80;99.90;;;;;;5009951;28;20248;-46
2020/12/17 04:14:43;;;;;;;34.93;25.13;;;7.80;99.90;;;;;;5010032;28;20307;-46
2020/12/17 04:17:10;;;;;;;37.13;26.10;;;7.80;99.90;;;;;;4993753;28;20246;-46
2020/12/17 04:19:38;;;;;;;35.20;25.50;;;7.80;99.90;;;;;;5005513;28;20291;-46
2020/12/17 04:22:05;;;;;;;37.20;26.33;;;7.80;99.90;;;;;;5009729;28;20249;-46
2020/12/17 04:24:32;;;;;;;34.97;26.00;;;7.80;99.90;;;;;;5006560;28;20287;-46
2020/12/17 04:27:00;;;;;;;34.83;26.10;;;7.90;99.90;;;;;;5010040;28;20731;-46
2020/12/17 04:29:28;;;;;;;36.43;25.43;;;7.80;99.90;;;;;;5009825;28;20232;-46
2020/12/17 04:31:55;;;;;;;40.35;31.75;;;7.80;99.90;;;;;;5008127;28;21210;-46
2020/12/17 04:34:23;;;;;;;36.03;27.10;;;7.80;99.90;;;;;;5008672;28;20311;-47
2020/12/17 04:36:50;;;;;;;38.37;25.77;;;7.80;99.90;;;;;;5009988;28;20237;-46
2020/12/17 04:39:22;;;;;;;36.63;25.67;;;7.80;99.90;;;;;;5009940;28;20248;-46
2020/12/17 04:41:52;;;;;;;35.83;25.03;;;7.80;99.90;;;;;;5009197;28;20303;-46
2020/12/17 04:44:20;;;;;;;35.17;24.23;;;7.80;99.90;;;;;;5009737;28;20260;-46
2020/12/17 04:46:56;;;;;;;32.77;24.50;;;7.90;99.90;;;;;;5009724;28;20240;-46
2020/12/17 04:49:27;;;;;;;34.20;24.70;;;7.80;99.90;;;;;;5009323;28;20604;-46
2020/12/17 04:51:58;;;;;;;38.80;26.37;;;7.80;99.90;;;;;;5009222;28;20237;-46
2020/12/17 04:54:26;;;;;;;37.40;25.47;;;7.80;99.90;;;;;;5009062;28;20241;-46
2020/12/17 04:57:05;;;;;;;38.93;27.00;;;7.80;99.90;;;;;;5009808;28;20237;-46
2020/12/17 04:59:45;;;;;;;38.67;25.50;;;7.80;99.90;;;;;;5009354;28;20255;-46
2020/12/17 05:02:17;;;;;;;38.17;25.53;;;7.80;99.90;;;;;;5008153;28;20245;-46
2020/12/17 05:04:47;;;;;;;34.63;24.40;;;7.80;99.90;;;;;;5001295;28;20299;-46
2020/12/17 05:07:17;;;;;;;36.53;26.27;;;7.80;99.90;;;;;;5008592;28;20241;-46
2020/12/17 05:09:46;;;;;;;38.43;26.10;;;7.80;99.90;;;;;;5008991;28;20297;-46
2020/12/17 05:12:15;;;;;;;35.77;25.07;;;7.80;99.90;;;;;;5004837;28;20609;-46
2020/12/17 05:14:43;;;;;;;41.70;26.90;;;7.80;99.90;;;;;;5008961;28;20237;-46
2020/12/17 05:17:12;;;;;;;37.17;25.87;;;7.80;99.90;;;;;;5010166;28;20872;-46
2020/12/17 05:19:42;;;;;;;37.47;26.20;;;7.80;99.90;;;;;;5008618;28;20663;-47
2020/12/17 05:22:13;;;;;;;38.60;25.50;;;7.80;99.90;;;;;;5009143;28;20332;-46
2020/12/17 05:24:44;;;;;;;37.00;25.40;;;7.80;99.90;;;;;;5008550;28;20245;-46
2020/12/17 05:27:11;;;;;;;34.73;25.30;;;7.90;99.90;;;;;;5009366;28;20263;-46
2020/12/17 05:29:40;;;;;;;39.60;27.10;;;7.90;99.90;;;;;;5008160;28;20704;-46
2020/12/17 05:32:09;;;;;;;36.27;25.27;;;7.90;99.90;;;;;;5010743;28;20244;-46
2020/12/17 05:34:38;;;;;;;37.73;25.50;;;7.90;99.90;;;;;;5009740;28;20245;-46
2020/12/17 05:37:07;;;;;;;36.23;24.53;;;7.90;99.90;;;;;;5008967;28;20233;-46
2020/12/17 05:39:42;;;;;;;37.90;25.30;;;7.80;99.90;;;;;;5014762;28;20244;-46
2020/12/17 05:42:13;;;;;;;37.93;25.63;;;7.80;99.90;;;;;;5008791;28;20233;-46
2020/12/17 05:44:40;;;;;;;38.43;25.00;;;7.80;99.90;;;;;;5008841;28;20237;-46
2020/12/17 05:47:13;;;;;;;36.77;25.70;;;7.90;99.90;;;;;;5008926;28;20232;-46
2020/12/17 05:49:41;;;;;;;35.60;25.20;;;7.90;99.90;;;;;;5008527;28;20787;-45
2020/12/17 05:52:12;;;;;;;36.27;25.70;;;7.90;99.90;;;;;;5008112;28;20241;-46
2020/12/17 05:54:43;;;;;;;35.97;24.60;;;7.90;99.90;;;;;;5008817;28;20287;-46
2020/12/17 05:57:13;;;;;;;38.07;26.00;;;7.90;99.90;;;;;;5008984;28;20244;-46
2020/12/17 05:59:41;;;;;;;36.83;24.67;;;7.90;99.90;;;;;;5008589;28;20292;-46
2020/12/17 06:02:20;;;;;;;36.17;24.70;;;7.80;99.90;;;;;;5003206;28;20267;-47
2020/12/17 06:05:03;;;;;;;41.67;25.23;;;7.90;99.90;;;;;;5007146;28;20240;-46
2020/12/17 06:07:48;;;;;;;36.43;25.23;;;7.80;99.90;;;;;;5008083;28;20288;-46
2020/12/17 06:10:27;;;;;;;36.60;25.33;;;7.80;99.90;;;;;;5008204;28;20233;-46
2020/12/17 06:12:58;;;;;;;37.13;25.70;;;7.80;99.90;;;;;;5003032;28;20287;-46
2020/12/17 06:15:27;;;;;;;38.23;24.97;;;7.80;99.90;;;;;;4989109;28;20241;-46
2020/12/17 06:17:57;;;;;;;38.43;25.77;;;7.80;99.90;;;;;;4989269;28;20329;-46
2020/12/17 06:20:27;;;;;;;38.97;25.43;;;7.80;99.90;;;;;;5007484;28;20237;-46
2020/12/17 06:22:56;;;;;;;41.60;25.83;;;7.80;99.90;;;;;;5007808;28;20303;-46
2020/12/17 06:25:28;;;;;;;33.57;25.00;;;7.80;99.90;;;;;;5008527;28;20241;-46
2020/12/17 06:27:57;;;;;;;36.53;25.43;;;7.80;99.90;;;;;;5004342;28;20233;-48
2020/12/17 06:30:26;;;;;;;36.73;25.40;;;7.80;99.90;;;;;;5007050;28;20299;-46
2020/12/17 06:32:56;;;;;;;36.20;24.80;;;7.80;99.90;;;;;;5005307;28;20736;-46
2020/12/17 06:35:44;;;;;;;37.70;25.87;;;7.80;99.90;;;;;;5003319;28;20237;-46
2020/12/17 06:38:15;;;;;;;36.93;24.90;;;7.80;99.90;;;;;;5009288;28;20308;-46
2020/12/17 06:40:43;;;;;;;38.13;25.27;;;7.80;99.90;;;;;;5007671;28;20704;-46
2020/12/17 06:43:12;;;;;;;37.67;24.53;;;7.80;99.90;;;;;;4994088;28;20236;-46
2020/12/17 06:45:40;;;;;;;36.10;24.10;;;7.80;99.90;;;;;;5012116;28;20324;-46
2020/12/17 06:48:33;;;;;;;35.67;24.10;;;7.80;99.90;;;;;;5000799;28;20233;-46
2020/12/17 06:51:29;;;;;;;35.90;25.00;;;7.90;99.90;;;;;;5008479;28;20723;-46
2020/12/17 06:53:57;;;;;;;35.53;24.27;;;7.90;99.90;;;;;;5010777;28;20264;-46
2020/12/17 06:56:24;;;;;;;35.37;24.23;;;7.80;99.90;;;;;;4995892;28;20241;-46
2020/12/17 06:59:18;;;;;;;38.30;26.37;;;7.80;99.90;;;;;;4995615;28;20600;-46
2020/12/17 07:01:47;;;;;;;40.30;24.57;;;7.80;99.90;;;;;;5008946;28;20379;-47
2020/12/17 07:04:44;;;;;;;37.07;25.40;;;7.80;99.90;;;;;;5005379;28;20232;-46
2020/12/17 07:07:16;;;;;;;37.07;23.47;;;7.80;99.90;;;;;;5006210;28;20731;-46
2020/12/17 07:09:47;;;;;;;34.03;24.00;;;7.80;99.90;;;;;;5006985;28;20233;-46
2020/12/17 07:12:45;;;;;;;36.53;25.43;;;7.80;99.90;;;;;;5008649;28;20261;-46
2020/12/17 07:15:34;;;;;;;36.60;25.13;;;7.80;99.90;;;;;;5008339;28;20810;-46
2020/12/17 07:18:24;;;;;;;37.07;24.43;;;7.80;99.90;;;;;;5007174;28;20237;-46
2020/12/17 07:20:54;;;;;;;39.30;26.00;;;7.80;99.90;;;;;;4998919;28;20238;-46
2020/12/17 07:23:23;;;;;;;37.93;24.60;;;7.80;99.90;;;;;;5004543;28;20602;-46
2020/12/17 07:25:54;;;;;;;39.00;24.80;;;7.80;99.90;;;;;;5010488;28;20247;-46
2020/12/17 07:28:26;;;;;;;37.60;24.33;;;7.80;99.90;;;;;;5012482;28;20233;-45
2020/12/17 07:30:55;;;;;;;37.93;25.57;;;7.80;99.90;;;;;;5010253;28;20333;-46
2020/12/17 07:33:42;;;;;;;34.93;23.63;;;7.80;99.90;;;;;;5008739;28;20249;-46
2020/12/17 07:36:12;;;;;;;39.67;24.70;;;7.80;99.90;;;;;;4991056;28;20256;-46
2020/12/17 07:38:41;;;;;;;37.57;25.97;;;7.80;99.90;;;;;;5003473;28;20299;-46
2020/12/17 07:41:25;;;;;;;36.50;24.00;;;7.80;99.90;;;;;;5007063;28;20328;-46
2020/12/17 07:43:53;;;;;;;36.53;24.30;;;7.80;99.90;;;;;;5012328;28;20241;-46
2020/12/17 07:46:40;;;;;;;37.30;24.80;;;7.90;99.90;;;;;;5007224;28;20376;-46
2020/12/17 07:49:24;;;;;;;39.53;25.20;;;7.90;99.90;;;;;;5007447;28;20737;-46
2020/12/17 07:51:51;;;;;;;34.07;23.70;;;7.90;99.90;;;;;;5006641;28;20244;-46
2020/12/17 07:54:21;;;;;;;36.37;24.03;;;7.90;99.90;;;;;;5006439;28;20723;-46
2020/12/17 07:56:50;;;;;;;34.27;23.37;;;7.90;99.90;;;;;;5006074;28;20252;-46
2020/12/17 07:59:18;;;;;;;34.90;24.60;;;7.90;99.90;;;;;;4999907;28;20233;-46
2020/12/17 08:01:45;;;;;;;34.40;24.93;;;7.90;99.90;;;;;;5006109;28;20667;-46
2020/12/17 08:04:13;;;;;;;36.47;24.13;;;7.90;99.90;;;;;;5006885;28;20241;-46
2020/12/17 08:06:41;;;;;;;33.40;23.90;;;7.90;99.90;;;;;;5007362;28;20292;-47
2020/12/17 08:09:08;;;;;;;36.53;23.80;;;7.90;99.90;;;;;;5006284;28;20241;-46
2020/12/17 08:11:55;;;;;;;31.93;22.50;;;7.90;99.90;;;;;;5004834;28;20327;-46
2020/12/17 08:14:23;;;;;;;34.67;23.87;;;7.90;99.90;;;;;;5007001;28;20248;-46
2020/12/17 08:16:51;;;;;;;34.40;24.00;;;7.90;99.90;;;;;;5013299;28;20327;-46
2020/12/17 08:19:18;;;;;;;35.17;23.20;;;7.90;99.90;;;;;;5012415;28;20272;-46
2020/12/17 08:21:46;;;;;;;33.37;23.40;;;7.90;99.90;;;;;;5003717;28;20405;-46
2020/12/17 08:24:14;;;;;;;33.23;22.63;;;8.00;99.90;;;;;;5005433;28;20256;-46
2020/12/17 08:26:42;;;;;;;33.67;22.77;;;7.90;99.90;;;;;;5003150;28;20237;-46
2020/12/17 08:29:10;;;;;;;31.27;22.23;;;8.00;99.90;;;;;;5007379;28;20257;-46
2020/12/17 08:31:37;;;;;;;33.47;22.60;;;8.00;99.90;;;;;;5005559;28;20708;-47
2020/12/17 08:34:04;;;;;;;32.57;23.10;;;8.00;99.90;;;;;;5006007;28;20241;-46
2020/12/17 08:36:37;;;;;;;31.97;23.13;;;8.00;99.90;;;;;;4999607;28;20325;-46
2020/12/17 08:39:07;;;;;;;32.47;22.57;;;8.00;99.90;;;;;;4986699;28;20242;-46
2020/12/17 08:41:48;;;;;;;32.77;22.63;;;8.00;99.90;;;;;;4985956;28;20329;-46
2020/12/17 08:44:22;;;;;;;30.63;23.00;;;8.00;99.90;;;;;;4986600;28;20234;-46
2020/12/17 08:46:57;;;;;;;32.17;22.57;;;8.00;99.90;;;;;;4999774;28;20244;-46
2020/12/17 08:49:26;;;;;;;30.13;22.67;;;8.10;99.90;;;;;;5001466;28;20287;-46
2020/12/17 08:51:54;;;;;;;33.70;22.57;;;8.00;99.90;;;;;;4990870;28;20269;-47
2020/12/17 08:54:26;;;;;;;31.17;22.23;;;8.10;99.90;;;;;;4995492;28;20245;-46
2020/12/17 08:57:00;;;;;;;30.80;22.20;;;8.10;99.90;;;;;;5005213;28;20276;-46
2020/12/17 08:59:29;;;;;;;30.00;22.20;;;8.10;99.90;;;;;;5005976;28;20290;-46
2020/12/17 09:01:57;;;;;;;29.67;21.20;;;8.10;99.90;;;;;;5005083;28;20257;-46
2020/12/17 09:04:26;;;;;;;32.00;23.30;;;8.10;99.90;;;;;;4998755;28;20336;-47
2020/12/17 09:06:56;;;;;;;34.50;23.10;;;8.10;99.90;;;;;;4986765;28;20717;-46
2020/12/17 09:09:26;;;;;;;29.50;23.00;;;8.10;99.90;;;;;;5001179;28;20245;-46
2020/12/17 09:12:09;;;;;;;31.93;22.80;;;8.20;99.90;;;;;;5005439;28;20352;-46
2020/12/17 09:14:39;;;;;;;31.03;22.83;;;8.20;99.90;;;;;;5005859;28;20303;-46
2020/12/17 09:17:12;;;;;;;32.27;22.00;;;8.20;99.90;;;;;;4999785;28;20315;-46
2020/12/17 09:19:40;;;;;;;30.30;22.77;;;8.20;99.90;;;;;;4997095;28;20693;-46
2020/12/17 09:22:07;;;;;;;33.57;22.93;;;8.20;99.90;;;;;;5002845;28;20233;-46
2020/12/17 09:24:36;;;;;;;31.23;23.37;;;8.20;99.90;;;;;;5006704;28;20712;-46
2020/12/17 09:27:18;;;;;;;31.00;23.93;;;8.20;99.90;;;;;;5006262;28;20241;-46
2020/12/17 09:30:01;;;;;;;32.90;24.53;;;8.30;99.90;;;;;;5022420;28;20267;-46
2020/12/17 09:32:28;;;;;;;32.40;23.03;;;8.30;99.90;;;;;;5023337;28;20311;-46
2020/12/17 09:35:09;;;;;;;32.00;23.43;;;8.30;99.90;;;;;;4987517;28;20249;-46
2020/12/17 09:37:39;;;;;;;30.87;24.23;;;8.30;99.90;;;;;;4986810;28;20601;-46
2020/12/17 09:40:08;;;;;;;28.40;21.70;;;8.30;99.90;;;;;;4990152;28;20771;-46
2020/12/17 09:42:36;;;;;;;29.23;22.33;;;8.40;99.90;;;;;;5004694;28;20266;-46
2020/12/17 09:45:16;;;;;;;31.87;21.53;;;8.40;99.90;;;;;;5005447;28;20269;-46
2020/12/17 09:47:44;;;;;;;31.50;22.73;;;8.40;99.90;;;;;;5005013;28;20277;-46
2020/12/17 09:50:14;;;;;;;28.27;21.30;;;8.40;99.90;;;;;;5005334;28;20328;-46
2020/12/17 09:52:42;;;;;;;30.83;22.37;;;8.50;99.90;;;;;;5003084;28;20248;-46
2020/12/17 09:55:12;;;;;;;30.00;22.20;;;8.50;99.90;;;;;;5004245;28;20716;-46
2020/12/17 09:57:41;;;;;;;29.60;20.30;;;8.50;99.90;;;;;;5005448;28;20299;-46
2020/12/17 10:00:11;;;;;;;27.47;21.50;;;8.60;99.90;;;;;;5005122;28;20236;-46
2020/12/17 10:02:39;;;;;;;27.93;21.30;;;8.60;99.90;;;;;;5003676;28;20237;-46
2020/12/17 10:05:09;;;;;;;27.87;21.50;;;8.60;99.90;;;;;;4995981;28;20292;-46
2020/12/17 10:07:36;;;;;;;26.53;20.80;;;8.60;99.90;;;;;;5000654;28;20654;-46
2020/12/17 10:10:05;;;;;;;36.43;22.60;;;8.60;99.90;;;;;;4998591;28;20758;-46
2020/12/17 10:12:41;;;;;;;27.73;21.27;;;8.70;99.90;;;;;;4999054;28;20696;-46
2020/12/17 10:15:10;;;;;;;26.27;20.07;;;8.70;99.90;;;;;;4997371;28;20686;-46
2020/12/17 10:17:38;;;;;;;30.80;21.40;;;8.70;99.90;;;;;;5000652;28;20323;-46
2020/12/17 10:20:07;;;;;;;27.90;21.43;;;8.70;99.90;;;;;;5005616;28;20244;-46
2020/12/17 10:22:45;;;;;;;30.50;22.30;;;8.80;99.90;;;;;;4998826;28;20260;-46
2020/12/17 10:25:13;;;;;;;28.07;21.77;;;8.80;99.90;;;;;;5001404;28;20236;-46
2020/12/17 10:27:40;;;;;;;30.17;20.50;;;8.90;99.90;;;;;;5009498;28;20693;-46
2020/12/17 10:30:08;;;;;;;28.50;21.40;;;8.90;99.90;;;;;;5008811;28;20241;-46
2020/12/17 10:32:37;;;;;;;28.03;20.60;;;8.80;99.90;;;;;;5004892;28;20240;-46
2020/12/17 10:35:06;;;;;;;26.33;20.43;;;8.80;99.90;;;;;;5008442;28;20312;-46
2020/12/17 10:37:33;;;;;;;31.07;21.17;;;8.90;99.90;;;;;;5008691;28;20295;-46
2020/12/17 10:40:01;;;;;;;25.70;20.27;;;8.80;99.90;;;;;;5003815;28;20726;-46
2020/12/17 10:42:29;;;;;;;27.37;20.60;;;8.90;99.90;;;;;;4998127;28;20237;-46
2020/12/17 10:44:56;;;;;;;27.17;20.77;;;8.90;99.90;;;;;;5005186;28;20245;-46
2020/12/17 10:47:24;;;;;;;30.57;21.00;;;8.90;99.90;;;;;;4998611;28;20241;-46
2020/12/17 10:49:51;;;;;;;26.63;21.73;;;9.00;99.90;;;;;;4997268;28;20302;-46
2020/12/17 10:52:19;;;;;;;27.50;21.40;;;9.00;99.90;;;;;;5007160;28;20237;-46
2020/12/17 10:54:47;;;;;;;25.40;21.70;;;9.10;99.90;;;;;;5008002;28;20328;-46
2020/12/17 10:57:19;;;;;;;23.67;19.47;;;9.00;99.90;;;;;;5008674;28;20248;-47
2020/12/17 10:59:47;;;;;;;25.53;20.30;;;9.10;99.90;;;;;;5008539;28;20248;-46
2020/12/17 11:02:15;;;;;;;24.93;20.03;;;9.10;99.90;;;;;;5007777;28;20730;-46
2020/12/17 11:04:43;;;;;;;22.43;18.73;;;9.10;99.90;;;;;;5007882;28;20237;-46
2020/12/17 11:07:10;;;;;;;22.87;18.63;;;9.10;99.90;;;;;;5008775;28;20252;-46
2020/12/17 11:09:39;;;;;;;22.70;19.33;;;9.10;99.90;;;;;;5008137;28;20245;-46
2020/12/17 11:12:08;;;;;;;22.23;19.47;;;9.00;99.90;;;;;;5004311;28;20258;-48
2020/12/17 11:14:36;;;;;;;21.73;18.63;;;9.00;99.90;;;;;;4995620;28;20241;-46
2020/12/17 11:17:03;;;;;;;24.07;20.60;;;9.10;99.90;;;;;;5003738;28;20236;-46
2020/12/17 11:19:31;;;;;;;22.27;19.77;;;9.10;99.90;;;;;;5003867;28;20807;-46
2020/12/17 11:22:00;;;;;;;23.63;21.10;;;9.10;99.90;;;;;;5018946;28;20244;-46
2020/12/17 11:24:28;;;;;;;23.10;20.37;;;9.20;99.90;;;;;;5026833;28;20240;-46
2020/12/17 11:26:56;;;;;;;25.07;19.40;;;9.20;99.90;;;;;;5027420;28;20334;-46
2020/12/17 11:29:24;;;;;;;22.33;19.53;;;9.20;99.90;;;;;;5027385;28;20710;-46
2020/12/17 11:31:51;;;;;;;22.40;19.37;;;9.20;99.90;;;;;;5025437;28;20314;-46
2020/12/17 11:34:19;;;;;;;22.60;20.37;;;9.20;99.90;;;;;;5015262;28;20236;-46
2020/12/17 11:36:46;;;;;;;21.70;19.40;;;9.20;99.90;;;;;;4999076;28;20712;-46
2020/12/17 11:39:14;;;;;;;22.37;19.70;;;9.20;99.90;;;;;;4995848;28;20655;-46
2020/12/17 11:41:47;;;;;;;23.50;19.87;;;9.20;99.90;;;;;;4987760;28;20295;-46
2020/12/17 11:44:15;;;;;;;23.43;19.97;;;9.20;99.90;;;;;;4988183;28;20622;-46
2020/12/17 11:46:43;;;;;;;20.63;18.43;;;9.20;99.90;;;;;;4990149;28;20234;-46
2020/12/17 11:49:11;;;;;;;19.40;16.53;;;9.20;99.90;;;;;;5006079;28;20260;-47
2020/12/17 11:51:39;;;;;;;19.93;17.70;;;9.20;99.90;;;;;;5007220;28;20264;-46
2020/12/17 11:54:06;;;;;;;14.93;13.33;;;9.20;99.90;;;;;;5007275;28;20241;-46
2020/12/17 11:56:34;;;;;;;12.03;10.87;;;9.20;99.90;;;;;;5007106;28;20245;-46
2020/12/17 11:59:01;;;;;;;10.63;9.60;;;9.20;99.90;;;;;;5001356;28;20284;-46
2020/12/17 12:01:30;;;;;;;8.20;7.40;;;9.20;99.90;;;;;;5006876;28;20708;-46
2020/12/17 12:03:57;;;;;;;7.70;6.93;;;9.20;99.90;;;;;;5006433;28;20343;-46
2020/12/17 12:06:24;;;;;;;7.87;6.80;;;9.30;99.90;;;;;;5007351;28;20269;-46
2020/12/17 12:08:52;;;;;;;7.20;6.50;;;9.30;99.90;;;;;;4998394;28;20292;-46
2020/12/17 12:11:20;;;;;;;6.90;6.20;;;9.30;99.90;;;;;;4996576;28;20315;-46
2020/12/17 12:13:52;;;;;;;6.53;5.50;;;9.30;99.90;;;;;;5003619;28;20248;-46
2020/12/17 12:16:20;;;;;;;5.90;5.10;;;9.30;99.90;;;;;;5005250;28;20237;-46
2020/12/17 12:18:49;;;;;;;5.83;5.20;;;9.30;99.90;;;;;;5006861;28;20237;-46
2020/12/17 12:21:17;;;;;;;5.50;4.87;;;9.30;99.90;;;;;;5006347;28;20241;-46
2020/12/17 12:23:45;;;;;;;4.90;4.40;;;9.20;99.90;;;;;;5005934;28;20604;-46
2020/12/17 12:26:13;;;;;;;4.83;4.37;;;9.10;99.90;;;;;;5006222;28;20236;-47
2020/12/17 12:28:41;;;;;;;4.53;4.13;;;9.20;99.90;;;;;;4998138;28;20261;-46
2020/12/17 12:31:08;;;;;;;5.07;4.50;;;9.20;99.90;;;;;;4991004;28;20243;-46
2020/12/17 12:33:36;;;;;;;4.80;4.30;;;9.20;99.90;;;;;;4989524;28;20238;-46
2020/12/17 12:36:06;;;;;;;5.73;4.63;;;9.30;99.90;;;;;;5000139;28;20241;-46
2020/12/17 12:38:34;;;;;;;5.00;4.50;;;9.30;99.90;;;;;;4999385;28;20291;-46
2020/12/17 12:41:01;;;;;;;4.83;4.30;;;9.40;99.90;;;;;;5004390;28;20241;-46
2020/12/17 12:43:29;;;;;;;4.40;4.00;;;9.40;99.90;;;;;;5003049;28;20236;-46
2020/12/17 12:45:57;;;;;;;4.77;4.27;;;9.40;99.90;;;;;;5004082;28;20323;-46
2020/12/17 12:48:25;;;;;;;5.30;4.50;;;9.40;99.90;;;;;;5002479;28;20268;-46
2020/12/17 12:50:53;;;;;;;5.00;4.07;;;9.40;99.90;;;;;;5004290;28;20276;-46
2020/12/17 12:53:21;;;;;;;4.60;4.03;;;9.40;99.90;;;;;;4986190;28;20336;-46
2020/12/17 12:55:50;;;;;;;5.03;4.57;;;9.40;99.90;;;;;;4983598;28;20249;-46